createdAt,value
2019-03-31T00:00:00.030Z,15.00
2019-03-31T00:02:27.079Z,15.03
2019-03-31T00:04:54.121Z,14.50
2019-03-31T00:07:21.175Z,29.20
2019-03-31T00:09:48.231Z,16.63
2019-03-31T00:12:15.785Z,119.87
2019-03-31T00:14:59.606Z,46.40
2019-03-31T00:17:28.313Z,29.83
2019-03-31T00:19:55.363Z,18.90
2019-03-31T00:22:22.405Z,21.07
2019-03-31T00:24:49.455Z,15.93
2019-03-31T00:27:16.508Z,16.30
2019-03-31T00:29:43.552Z,14.57
2019-03-31T00:32:10.711Z,13.13
2019-03-31T00:34:37.751Z,15.53
2019-03-31T00:37:07.696Z,15.53
2019-03-31T00:39:33.385Z,17.77
2019-03-31T00:42:02.691Z,21.17
2019-03-31T00:44:29.735Z,26.17
2019-03-31T00:46:57.712Z,31.77
2019-03-31T00:49:24.789Z,42.03
2019-03-31T00:51:51.762Z,17.90
2019-03-31T00:54:18.858Z,17.83
2019-03-31T00:56:45.901Z,17.43
2019-03-31T00:59:12.947Z,15.93
2019-03-31T01:01:40.816Z,16.57
2019-03-31T01:04:07.967Z,16.83
2019-03-31T01:06:35.014Z,17.07
2019-03-31T01:09:02.165Z,16.10
2019-03-31T01:11:29.224Z,16.30
2019-03-31T01:13:56.261Z,15.57
2019-03-31T01:16:25.768Z,15.80
2019-03-31T01:18:52.919Z,14.63
2019-03-31T01:21:20.028Z,22.57
2019-03-31T01:23:47.125Z,17.77
2019-03-31T01:26:14.475Z,16.13
2019-03-31T01:28:41.524Z,16.43
2019-03-31T01:31:08.674Z,15.43
2019-03-31T01:33:35.727Z,16.23
2019-03-31T01:36:02.880Z,17.33
2019-03-31T01:38:29.924Z,16.40
2019-03-31T01:40:56.976Z,15.73
2019-03-31T01:43:24.027Z,16.13
2019-03-31T01:45:51.071Z,15.13
2019-03-31T01:48:18.942Z,15.27
2019-03-31T01:50:45.989Z,16.23
2019-03-31T01:53:13.034Z,15.43
2019-03-31T01:55:40.093Z,14.93
2019-03-31T01:58:07.241Z,15.47
2019-03-31T02:00:37.353Z,14.20
2019-03-31T02:03:06.245Z,14.63
2019-03-31T02:05:34.931Z,13.53
2019-03-31T02:08:01.987Z,13.80
2019-03-31T02:10:29.029Z,14.80
2019-03-31T02:12:56.077Z,15.37
2019-03-31T02:15:23.131Z,16.87
2019-03-31T02:17:50.686Z,16.43
2019-03-31T02:20:17.741Z,13.40
2019-03-31T02:22:44.749Z,13.93
2019-03-31T02:25:11.832Z,14.90
2019-03-31T02:27:38.889Z,15.80
2019-03-31T02:30:06.037Z,13.80
2019-03-31T02:32:33.094Z,14.93
2019-03-31T02:35:00.500Z,14.03
2019-03-31T02:37:27.282Z,14.83
2019-03-31T02:39:54.343Z,14.90
2019-03-31T02:42:21.377Z,15.00
2019-03-31T02:44:48.425Z,15.03
2019-03-31T02:47:15.987Z,12.10
2019-03-31T02:49:43.035Z,14.27
2019-03-31T02:52:10.090Z,15.07
2019-03-31T02:54:37.134Z,15.97
2019-03-31T02:57:04.858Z,12.20
2019-03-31T02:59:31.945Z,12.93
2019-03-31T03:01:59.097Z,13.50
2019-03-31T03:04:26.153Z,13.90
2019-03-31T03:06:55.399Z,14.37
2019-03-31T03:09:22.495Z,14.07
2019-03-31T03:11:49.546Z,12.90
2019-03-31T03:14:16.653Z,14.07
2019-03-31T03:16:43.794Z,12.47
2019-03-31T03:19:10.901Z,14.60
2019-03-31T03:21:37.942Z,15.20
2019-03-31T03:24:04.956Z,15.03
2019-03-31T03:26:32.053Z,12.77
2019-03-31T03:29:00.128Z,12.80
2019-03-31T03:31:28.464Z,11.73
2019-03-31T03:33:55.553Z,11.97
2019-03-31T03:36:24.229Z,14.00
2019-03-31T03:38:51.296Z,13.70
2019-03-31T03:41:18.274Z,12.93
2019-03-31T03:43:55.321Z,7.67
2019-03-31T03:46:12.523Z,13.17
2019-03-31T03:48:39.573Z,11.93
2019-03-31T03:51:07.242Z,13.40
2019-03-31T03:53:34.291Z,10.13
2019-03-31T03:56:01.337Z,13.77
2019-03-31T03:58:28.844Z,8.87
2019-03-31T04:01:09.351Z,12.07
2019-03-31T04:03:36.406Z,13.80
2019-03-31T04:06:05.097Z,13.83
2019-03-31T04:08:32.247Z,12.70
2019-03-31T04:10:59.317Z,13.73
2019-03-31T04:13:26.444Z,13.60
2019-03-31T04:15:53.498Z,15.00
2019-03-31T04:18:38.348Z,11.90
2019-03-31T04:21:05.407Z,12.10
2019-03-31T04:23:32.567Z,12.00
2019-03-31T04:25:59.613Z,12.23
2019-03-31T04:28:26.612Z,10.83
2019-03-31T04:30:53.704Z,11.00
2019-03-31T04:33:20.761Z,10.93
2019-03-31T04:35:47.804Z,11.87
2019-03-31T04:38:14.852Z,12.00
2019-03-31T04:40:42.001Z,10.47
2019-03-31T04:43:09.054Z,12.03
2019-03-31T04:45:36.818Z,11.07
2019-03-31T04:48:03.862Z,10.87
2019-03-31T04:50:30.909Z,11.43
2019-03-31T04:52:57.967Z,10.50
2019-03-31T04:55:24.970Z,12.93
2019-03-31T04:57:52.055Z,12.93
2019-03-31T05:00:19.110Z,13.10
2019-03-31T05:02:46.175Z,11.73
2019-03-31T05:05:13.203Z,10.97
2019-03-31T05:07:40.201Z,12.97
2019-03-31T05:10:07.198Z,11.57
2019-03-31T05:12:36.292Z,11.67
2019-03-31T05:15:03.444Z,11.93
2019-03-31T05:17:30.492Z,12.77
2019-03-31T05:19:58.466Z,11.90
2019-03-31T05:22:25.410Z,9.83
2019-03-31T05:24:52.463Z,11.20
2019-03-31T05:27:38.767Z,9.43
2019-03-31T05:30:05.810Z,11.33
2019-03-31T05:32:45.053Z,9.43
2019-03-31T05:35:12.095Z,9.57
2019-03-31T05:37:55.830Z,8.77
2019-03-31T05:40:22.877Z,10.07
2019-03-31T05:42:49.927Z,8.53
2019-03-31T05:45:16.980Z,8.07
2019-03-31T05:47:44.021Z,8.10
2019-03-31T05:50:11.072Z,7.53
2019-03-31T05:52:38.837Z,8.27
2019-03-31T05:55:06.504Z,7.17
2019-03-31T05:57:33.551Z,7.00
2019-03-31T06:00:00.613Z,7.07
2019-03-31T06:02:27.652Z,6.47
2019-03-31T06:04:54.694Z,6.50
2019-03-31T06:07:21.742Z,6.47
2019-03-31T06:09:48.795Z,6.87
2019-03-31T06:12:15.838Z,5.93
2019-03-31T06:14:42.887Z,6.03
2019-03-31T06:17:10.754Z,4.90
2019-03-31T06:19:37.806Z,4.77
2019-03-31T06:22:04.868Z,5.00
2019-03-31T06:24:31.900Z,4.70
2019-03-31T06:26:58.906Z,4.87
2019-03-31T06:29:26.003Z,4.70
2019-03-31T06:31:53.047Z,5.07
2019-03-31T06:34:20.812Z,4.30
2019-03-31T06:36:49.418Z,3.10
2019-03-31T06:39:16.602Z,6.30
2019-03-31T06:41:43.601Z,5.40
2019-03-31T06:44:10.598Z,4.30
2019-03-31T06:46:37.692Z,4.70
2019-03-31T06:49:04.748Z,4.27
2019-03-31T06:51:31.960Z,4.13
2019-03-31T06:53:58.940Z,4.53
2019-03-31T06:56:25.989Z,4.40
2019-03-31T06:58:53.043Z,3.97
2019-03-31T07:01:20.700Z,3.90
2019-03-31T07:03:47.748Z,4.03
2019-03-31T07:06:14.803Z,3.50
2019-03-31T07:08:53.601Z,3.90
2019-03-31T07:11:39.845Z,3.77
2019-03-31T07:14:12.449Z,3.57
2019-03-31T07:16:39.548Z,3.97
2019-03-31T07:19:23.957Z,3.80
2019-03-31T07:22:10.157Z,3.57
2019-03-31T07:24:53.901Z,3.57
2019-03-31T07:27:20.994Z,3.60
2019-03-31T07:29:48.100Z,3.83
2019-03-31T07:32:16.558Z,3.93
2019-03-31T07:34:44.089Z,3.70
2019-03-31T07:37:11.134Z,3.77
2019-03-31T07:39:38.254Z,3.47
2019-03-31T07:42:07.464Z,3.87
2019-03-31T07:44:41.483Z,4.07
2019-03-31T07:47:26.654Z,3.90
2019-03-31T07:50:09.659Z,4.30
2019-03-31T07:52:48.528Z,4.03
2019-03-31T07:55:36.262Z,3.30
2019-03-31T07:58:19.261Z,3.87
2019-03-31T08:01:07.506Z,4.20
2019-03-31T08:04:04.009Z,3.80
2019-03-31T08:06:50.631Z,3.43
2019-03-31T08:09:43.023Z,4.20
2019-03-31T08:12:30.156Z,4.47
2019-03-31T08:15:15.887Z,4.40
2019-03-31T08:18:05.337Z,4.00
2019-03-31T08:20:52.639Z,5.20
2019-03-31T08:23:39.140Z,6.07
2019-03-31T08:26:25.059Z,5.53
2019-03-31T08:29:12.133Z,5.60
2019-03-31T08:31:39.173Z,5.07
2019-03-31T08:34:23.397Z,5.63
2019-03-31T08:37:11.519Z,5.87
2019-03-31T08:39:56.638Z,6.37
2019-03-31T08:42:23.689Z,6.57
2019-03-31T08:45:12.614Z,6.10
2019-03-31T08:47:59.762Z,5.87
2019-03-31T08:50:45.443Z,5.43
2019-03-31T08:53:31.992Z,6.90
2019-03-31T08:56:20.250Z,6.53
2019-03-31T08:59:07.046Z,5.37
2019-03-31T09:01:53.562Z,6.53
2019-03-31T09:04:42.050Z,7.73
2019-03-31T09:07:28.149Z,6.60
2019-03-31T09:10:10.393Z,6.20
2019-03-31T09:12:58.576Z,6.40
2019-03-31T09:15:45.233Z,7.13
2019-03-31T09:18:32.842Z,6.67
2019-03-31T09:21:15.818Z,6.43
2019-03-31T09:23:45.492Z,7.10
2019-03-31T09:26:33.121Z,6.00
2019-03-31T09:29:19.480Z,5.87
2019-03-31T09:32:12.591Z,7.43
2019-03-31T09:34:57.229Z,7.30
2019-03-31T09:37:45.269Z,6.90
2019-03-31T09:40:42.221Z,6.05
2019-03-31T09:43:28.782Z,6.50
2019-03-31T09:46:17.256Z,7.80
2019-03-31T09:49:04.553Z,8.18
2019-03-31T09:51:51.894Z,8.15
2019-03-31T09:54:40.292Z,7.10
2019-03-31T09:57:28.990Z,6.37
2019-03-31T10:00:19.888Z,7.03
2019-03-31T10:03:06.885Z,7.10
2019-03-31T10:06:04.409Z,7.72
2019-03-31T10:08:43.045Z,7.18
2019-03-31T10:11:33.134Z,7.20
2019-03-31T10:14:21.024Z,7.93
2019-03-31T10:17:09.255Z,7.18
2019-03-31T10:20:07.127Z,7.68
2019-03-31T10:22:54.362Z,7.30
2019-03-31T10:25:40.527Z,6.95
2019-03-31T10:28:26.869Z,5.70
2019-03-31T10:31:16.410Z,5.90
2019-03-31T10:34:03.660Z,5.97
2019-03-31T10:37:00.800Z,5.35
2019-03-31T10:39:49.832Z,5.80
2019-03-31T10:42:38.267Z,4.85
2019-03-31T10:45:25.098Z,5.40
2019-03-31T10:48:19.813Z,4.07
2019-03-31T10:50:56.367Z,5.50
2019-03-31T10:53:23.416Z,5.87
2019-03-31T10:55:51.899Z,5.70
2019-03-31T10:58:39.937Z,6.30
2019-03-31T11:01:29.612Z,6.62
2019-03-31T11:04:16.080Z,6.10
2019-03-31T11:07:04.247Z,6.90
2019-03-31T11:09:48.740Z,6.55
2019-03-31T11:12:15.772Z,6.35
2019-03-31T11:15:02.884Z,6.37
2019-03-31T11:17:48.692Z,5.90
2019-03-31T11:20:15.727Z,5.93
2019-03-31T11:23:07.528Z,4.60
2019-03-31T11:25:34.605Z,4.22
2019-03-31T11:28:22.099Z,3.55
2019-03-31T11:31:08.017Z,4.55
2019-03-31T11:33:55.211Z,5.32
2019-03-31T11:36:25.319Z,3.37
2019-03-31T11:41:53.193Z,2.65
2019-03-31T11:44:20.926Z,5.07
2019-03-31T11:46:47.932Z,4.87
2019-03-31T11:49:14.920Z,5.53
2019-03-31T11:51:44.224Z,4.47
2019-03-31T11:54:11.265Z,5.22
2019-03-31T11:56:38.313Z,4.97
2019-03-31T11:59:05.316Z,4.87
2019-03-31T12:01:32.307Z,4.03
2019-03-31T12:03:59.362Z,4.57
2019-03-31T12:06:26.411Z,4.30
2019-03-31T12:08:53.453Z,4.18
2019-03-31T12:11:20.509Z,4.95
2019-03-31T12:13:47.551Z,5.25
2019-03-31T12:16:14.601Z,3.90
2019-03-31T12:18:41.750Z,4.20
2019-03-31T12:21:09.313Z,5.10
2019-03-31T12:23:36.360Z,4.97
2019-03-31T12:26:03.415Z,4.40
2019-03-31T12:28:31.180Z,4.95
2019-03-31T12:30:58.223Z,5.12
2019-03-31T12:33:25.228Z,5.10
2019-03-31T12:35:53.246Z,4.50
2019-03-31T12:38:20.246Z,4.80
2019-03-31T12:40:47.243Z,5.37
2019-03-31T12:43:14.286Z,4.93
2019-03-31T12:45:43.143Z,4.45
2019-03-31T12:48:08.389Z,4.50
2019-03-31T12:50:35.432Z,5.53
2019-03-31T12:53:02.499Z,3.33
2019-03-31T12:55:29.631Z,5.70
2019-03-31T12:57:56.686Z,4.35
2019-03-31T13:00:23.836Z,5.53
2019-03-31T13:02:50.879Z,5.47
2019-03-31T13:05:17.928Z,4.60
2019-03-31T13:07:55.678Z,5.20
2019-03-31T13:10:12.133Z,5.15
2019-03-31T13:12:39.176Z,5.32
2019-03-31T13:15:06.228Z,5.93
2019-03-31T13:17:33.281Z,5.75
2019-03-31T13:20:00.411Z,6.93
2019-03-31T13:22:27.587Z,5.50
2019-03-31T13:24:54.588Z,5.78
2019-03-31T13:27:21.578Z,7.10
2019-03-31T13:29:48.622Z,6.68
2019-03-31T13:32:15.770Z,6.12
2019-03-31T13:34:43.339Z,5.70
2019-03-31T13:37:10.379Z,7.18
2019-03-31T13:39:37.428Z,6.25
2019-03-31T13:42:04.487Z,6.28
2019-03-31T13:44:31.524Z,6.03
2019-03-31T13:46:58.573Z,5.82
2019-03-31T13:49:36.804Z,6.30
2019-03-31T13:52:26.579Z,4.90
2019-03-31T13:55:11.890Z,15.60
2019-03-31T13:57:57.861Z,6.25
2019-03-31T14:00:50.022Z,6.72
2019-03-31T14:03:36.921Z,6.53
2019-03-31T14:06:04.042Z,6.03
2019-03-31T14:08:52.622Z,5.50
2019-03-31T14:11:37.218Z,9.70
2019-03-31T14:14:21.899Z,6.20
2019-03-31T14:17:07.943Z,6.95
2019-03-31T14:19:45.801Z,16.77
2019-03-31T14:22:19.418Z,5.95
2019-03-31T14:25:05.130Z,5.82
2019-03-31T14:27:48.917Z,5.80
2019-03-31T14:30:35.596Z,6.65
2019-03-31T14:33:21.844Z,7.12
2019-03-31T14:36:08.331Z,7.18
2019-03-31T14:38:52.241Z,5.75
2019-03-31T14:41:36.969Z,7.65
2019-03-31T14:44:04.119Z,6.28
2019-03-31T14:46:31.159Z,6.62
2019-03-31T14:48:58.110Z,7.22
2019-03-31T14:51:25.158Z,7.12
2019-03-31T14:53:52.158Z,7.90
2019-03-31T14:56:19.161Z,9.00
2019-03-31T14:58:46.301Z,7.53
2019-03-31T15:01:14.505Z,6.45
2019-03-31T15:03:41.524Z,7.25
2019-03-31T15:06:08.574Z,4.72
2019-03-31T15:08:35.627Z,6.55
2019-03-31T15:11:02.669Z,7.90
2019-03-31T15:13:29.718Z,7.28
2019-03-31T15:15:56.731Z,7.78
2019-03-31T15:18:23.713Z,7.18
2019-03-31T15:20:50.768Z,8.40
2019-03-31T15:23:17.812Z,7.15
2019-03-31T15:25:46.703Z,7.85
2019-03-31T15:28:25.217Z,6.80
2019-03-31T15:31:11.071Z,5.35
2019-03-31T15:33:59.676Z,6.07
2019-03-31T15:36:48.319Z,7.28
2019-03-31T15:39:33.774Z,8.23
2019-03-31T15:42:17.953Z,7.95
2019-03-31T15:44:47.045Z,8.18
2019-03-31T15:47:32.439Z,7.82
2019-03-31T15:50:18.009Z,7.28
2019-03-31T15:52:54.238Z,7.62
2019-03-31T15:55:42.715Z,7.00
2019-03-31T15:58:24.040Z,7.70
2019-03-31T16:01:10.101Z,7.93
2019-03-31T16:03:56.352Z,9.40
2019-03-31T16:06:45.456Z,9.75
2019-03-31T16:09:30.942Z,10.70
2019-03-31T16:12:19.282Z,12.13
2019-03-31T16:14:59.228Z,11.90
2019-03-31T16:17:26.302Z,11.50
2019-03-31T16:19:53.344Z,11.38
2019-03-31T16:22:21.625Z,11.20
2019-03-31T16:24:49.601Z,10.50
2019-03-31T16:27:16.638Z,11.20
2019-03-31T16:29:43.690Z,9.98
2019-03-31T16:32:10.754Z,11.45
2019-03-31T16:34:37.786Z,11.52
2019-03-31T16:37:04.708Z,11.43
2019-03-31T16:39:37.901Z,10.35
2019-03-31T16:41:58.930Z,11.25
2019-03-31T16:44:25.980Z,11.60
2019-03-31T16:46:53.034Z,10.65
2019-03-31T16:49:20.033Z,10.27
2019-03-31T16:52:07.785Z,10.30
2019-03-31T16:54:55.149Z,10.65
2019-03-31T16:57:41.800Z,10.52
2019-03-31T17:00:28.516Z,10.50
2019-03-31T17:03:21.047Z,11.30
2019-03-31T17:06:07.454Z,10.35
2019-03-31T17:09:03.617Z,11.27
2019-03-31T17:11:54.835Z,10.68
2019-03-31T17:14:45.963Z,11.30
2019-03-31T17:17:32.996Z,50.58
2019-03-31T17:20:23.958Z,47.15
2019-03-31T17:23:16.215Z,34.25
2019-03-31T17:26:05.575Z,30.33
2019-03-31T17:28:53.930Z,26.70
2019-03-31T17:31:41.137Z,33.25
2019-03-31T17:34:29.120Z,37.55
2019-03-31T17:37:19.391Z,28.70
2019-03-31T17:40:07.688Z,24.10
2019-03-31T17:42:56.573Z,29.40
2019-03-31T17:45:49.600Z,28.02
2019-03-31T17:48:41.240Z,29.63
2019-03-31T17:51:32.366Z,52.58
2019-03-31T17:54:23.066Z,35.47
2019-03-31T17:57:12.917Z,25.42
2019-03-31T18:00:02.242Z,21.35
2019-03-31T18:02:51.292Z,20.90
2019-03-31T18:05:41.166Z,18.15
2019-03-31T18:08:31.263Z,16.50
2019-03-31T18:11:19.243Z,15.05
2019-03-31T18:14:15.711Z,13.80
2019-03-31T18:17:09.916Z,15.32
2019-03-31T18:20:03.390Z,16.85
2019-03-31T18:25:44.211Z,15.18
2019-03-31T18:28:33.054Z,14.43
2019-03-31T18:31:23.283Z,15.07
2019-03-31T18:34:27.262Z,11.77
2019-03-31T18:37:22.074Z,14.70
2019-03-31T18:43:06.512Z,13.73
2019-03-31T18:46:05.981Z,15.10
2019-03-31T18:48:55.417Z,14.82
2019-03-31T18:51:44.647Z,14.02
2019-03-31T18:54:35.698Z,14.07
2019-03-31T18:57:23.577Z,13.85
2019-03-31T19:00:14.646Z,14.70
2019-03-31T19:06:17.908Z,15.20
2019-03-31T19:09:17.203Z,14.80
2019-03-31T19:12:09.181Z,14.13
2019-03-31T19:14:59.510Z,11.88
2019-03-31T19:17:49.254Z,11.50
2019-03-31T19:20:42.200Z,11.05
2019-03-31T19:23:41.955Z,11.05
2019-03-31T19:26:48.097Z,10.85
2019-03-31T19:29:28.736Z,11.05
2019-03-31T19:32:16.164Z,11.85
2019-03-31T19:35:17.976Z,12.37
2019-03-31T19:38:09.049Z,13.32
2019-03-31T19:41:04.398Z,12.82
2019-03-31T19:43:55.763Z,12.52
2019-03-31T19:49:44.237Z,12.13
2019-03-31T19:52:45.642Z,12.68
2019-03-31T19:55:37.650Z,11.67
2019-03-31T19:58:19.625Z,12.10
2019-03-31T20:00:48.262Z,12.70
2019-03-31T20:03:20.170Z,13.13
2019-03-31T20:06:03.055Z,12.83
2019-03-31T20:08:33.200Z,13.00
2019-03-31T20:11:20.022Z,13.00
2019-03-31T20:13:50.752Z,13.30
2019-03-31T20:16:17.857Z,11.70
2019-03-31T20:18:51.201Z,12.97
2019-03-31T20:21:37.351Z,12.90
2019-03-31T20:24:06.499Z,13.60
2019-03-31T20:26:50.239Z,14.13
2019-03-31T20:29:19.126Z,13.90
2019-03-31T20:32:06.044Z,14.03
2019-03-31T20:34:39.033Z,13.80
2019-03-31T20:37:22.563Z,13.97
2019-03-31T20:40:04.458Z,13.93
2019-03-31T20:42:37.243Z,12.47
2019-03-31T20:45:05.681Z,14.63
2019-03-31T20:47:32.776Z,15.17
2019-03-31T20:50:05.736Z,15.20
2019-03-31T20:52:46.386Z,14.70
2019-03-31T20:55:36.844Z,16.03
2019-03-31T20:58:24.753Z,16.80
2019-03-31T21:01:12.480Z,17.13
2019-03-31T21:03:59.364Z,17.40
2019-03-31T21:06:47.711Z,17.20
2019-03-31T21:09:44.914Z,17.47
2019-03-31T21:12:31.063Z,16.67
2019-03-31T21:15:20.298Z,16.60
2019-03-31T21:18:08.334Z,16.40
2019-03-31T21:20:59.216Z,16.87
2019-03-31T21:23:46.925Z,16.27
2019-03-31T21:26:42.343Z,17.40
2019-03-31T21:29:30.832Z,17.77
2019-03-31T21:32:18.573Z,16.97
2019-03-31T21:35:07.511Z,18.40
2019-03-31T21:40:48.331Z,19.00
2019-03-31T21:43:39.265Z,19.67
2019-03-31T21:46:28.483Z,19.83
2019-03-31T21:49:18.080Z,18.73
2019-03-31T21:52:04.664Z,21.17
2019-03-31T21:57:48.271Z,21.87
2019-03-31T22:00:36.372Z,20.27
2019-03-31T22:06:16.414Z,21.93
2019-03-31T22:09:00.956Z,19.97
2019-03-31T22:11:47.501Z,21.13
2019-03-31T22:14:37.957Z,21.23
2019-03-31T22:17:28.418Z,21.10
2019-03-31T22:20:18.741Z,21.57
2019-03-31T22:23:08.209Z,21.87
2019-03-31T22:26:01.740Z,22.63
2019-03-31T22:28:51.102Z,21.37
2019-03-31T22:31:38.095Z,19.77
2019-03-31T22:34:16.120Z,22.50
2019-03-31T22:37:09.744Z,20.13
2019-03-31T22:39:57.283Z,18.97
2019-03-31T22:42:44.384Z,17.93
2019-03-31T22:45:33.320Z,18.07
2019-03-31T22:48:20.997Z,17.93
2019-03-31T22:51:16.025Z,15.43
2019-03-31T22:54:03.095Z,16.47
2019-03-31T22:56:52.921Z,17.33
2019-03-31T22:59:43.405Z,16.67
2019-03-31T23:05:30.595Z,17.23
2019-03-31T23:08:20.095Z,17.40
2019-03-31T23:11:06.739Z,16.93
2019-03-31T23:13:55.497Z,16.53
2019-03-31T23:16:40.963Z,17.70
2019-03-31T23:19:30.688Z,18.47
2019-03-31T23:22:22.239Z,17.50
2019-03-31T23:25:08.964Z,16.13
2019-03-31T23:30:49.590Z,18.00
2019-03-31T23:33:39.670Z,14.50
2019-03-31T23:36:32.793Z,17.43
2019-03-31T23:39:18.576Z,16.53
2019-03-31T23:42:05.259Z,17.70
2019-03-31T23:44:52.807Z,15.87
2019-03-31T23:47:38.803Z,15.90
2019-03-31T23:50:24.017Z,14.83
2019-03-31T23:53:08.325Z,14.23
2019-03-31T23:55:53.213Z,15.03
2019-03-31T23:58:42.319Z,14.60
